Terminal Aerodrome Forecast
Issued by NWS Binghamton, NY

Home | Current Version | Previous Version | Text Only | Print | Product List | Glossary On
Versions: 1 2 3 4 5 6 7 8 9 10 11 12 13 14 15 16 17 18 19 20 21 22 23 24 25 26 27 28
000
FTUS41 KBGM 150100 AAA
TAFBGM
TAF AMD
KBGM 150122Z 1501/1524 36004KT P6SM BKN040
     FM150500 03004KT P6SM SCT050
     FM151400 22005KT P6SM SCT200
     FM152100 22005KT P6SM SCT040 BKN150=

USA.gov is the U.S. government's official web portal to all federal, state and local government web resources and services.